sensor_id;sensor_type;location;lat;lon;timestamp;pressure;altitude;pressure_sealevel;temperature;humidity
68634;BME280;55625;47.072;22.192;2023-06-22T00:02:18;99887.72;;;20.58;98.54
68634;BME280;55625;47.072;22.192;2023-06-22T00:04:44;99888.78;;;20.61;99.65
68634;BME280;55625;47.072;22.192;2023-06-22T00:07:10;99888.00;;;20.60;99.99
68634;BME280;55625;47.072;22.192;2023-06-22T00:09:36;99871.19;;;20.53;100.00
68634;BME280;55625;47.072;22.192;2023-06-22T00:12:02;99858.09;;;20.52;100.00
68634;BME280;55625;47.072;22.192;2023-06-22T00:14:28;99859.88;;;20.50;100.00
68634;BME280;55625;47.072;22.192;2023-06-22T00:16:54;99854.13;;;20.50;100.00
68634;BME280;55625;47.072;22.192;2023-06-22T00:19:23;99853.38;;;20.55;100.00
68634;BME280;55625;47.072;22.192;2023-06-22T00:21:50;99847.88;;;20.57;100.00
68634;BME280;55625;47.072;22.192;2023-06-22T00:24:22;99850.75;;;20.51;100.00
68634;BME280;55625;47.072;22.192;2023-06-22T00:26:48;99846.56;;;20.52;100.00
68634;BME280;55625;47.072;22.192;2023-06-22T00:29:14;99853.34;;;20.49;100.00
68634;BME280;55625;47.072;22.192;2023-06-22T00:31:40;99853.34;;;20.49;100.00
68634;BME280;55625;47.072;22.192;2023-06-22T00:34:06;99846.25;;;20.50;100.00
68634;BME280;55625;47.072;22.192;2023-06-22T00:36:35;99838.41;;;20.51;100.00
68634;BME280;55625;47.072;22.192;2023-06-22T00:39:01;99838.41;;;20.51;100.00
68634;BME280;55625;47.072;22.192;2023-06-22T00:41:27;99837.34;;;20.48;100.00
68634;BME280;55625;47.072;22.192;2023-06-22T00:43:54;99831.03;;;20.44;100.00
68634;BME280;55625;47.072;22.192;2023-06-22T00:46:21;99836.53;;;20.42;100.00
68634;BME280;55625;47.072;22.192;2023-06-22T00:48:49;99826.53;;;20.37;100.00
68634;BME280;55625;47.072;22.192;2023-06-22T00:51:15;99811.59;;;20.28;100.00
68634;BME280;55625;47.072;22.192;2023-06-22T00:53:42;99810.53;;;20.25;100.00
68634;BME280;55625;47.072;22.192;2023-06-22T00:56:09;99812.38;;;20.23;100.00
68634;BME280;55625;47.072;22.192;2023-06-22T00:58:37;99817.03;;;20.20;100.00
68634;BME280;55625;47.072;22.192;2023-06-22T01:01:04;99819.44;;;20.22;100.00
68634;BME280;55625;47.072;22.192;2023-06-22T01:03:29;99820.50;;;20.24;100.00
68634;BME280;55625;47.072;22.192;2023-06-22T01:06:10;99825.72;;;20.26;100.00
68634;BME280;55625;47.072;22.192;2023-06-22T01:09:00;99819.72;;;20.29;100.00
68634;BME280;55625;47.072;22.192;2023-06-22T01:11:40;99823.38;;;20.30;100.00
68634;BME280;55625;47.072;22.192;2023-06-22T01:14:17;99821.56;;;20.32;100.00
68634;BME280;55625;47.072;22.192;2023-06-22T01:16:44;99824.16;;;20.30;100.00
68634;BME280;55625;47.072;22.192;2023-06-22T01:19:46;99828.88;;;20.28;100.00
68634;BME280;55625;47.072;22.192;2023-06-22T01:22:15;99836.22;;;20.29;100.00
68634;BME280;55625;47.072;22.192;2023-06-22T01:27:30;99840.16;;;20.26;100.00
68634;BME280;55625;47.072;22.192;2023-06-22T01:29:59;99844.09;;;20.28;100.00
68634;BME280;55625;47.072;22.192;2023-06-22T01:32:34;99837.28;;;20.31;99.70
68634;BME280;55625;47.072;22.192;2023-06-22T01:35:05;99838.88;;;20.38;96.75
68634;BME280;55625;47.072;22.192;2023-06-22T01:37:33;99852.53;;;20.43;98.71
68634;BME280;55625;47.072;22.192;2023-06-22T01:40:00;99849.91;;;20.45;98.31
68634;BME280;55625;47.072;22.192;2023-06-22T01:42:27;99840.47;;;20.44;100.00
68634;BME280;55625;47.072;22.192;2023-06-22T01:44:54;99844.41;;;20.41;100.00
68634;BME280;55625;47.072;22.192;2023-06-22T01:47:22;99840.97;;;20.37;100.00
68634;BME280;55625;47.072;22.192;2023-06-22T01:49:48;99852.47;;;20.32;100.00
68634;BME280;55625;47.072;22.192;2023-06-22T01:52:15;99857.19;;;20.35;100.00
68634;BME280;55625;47.072;22.192;2023-06-22T01:54:41;99852.75;;;20.34;100.00
68634;BME280;55625;47.072;22.192;2023-06-22T01:57:07;99864.78;;;20.32;100.00
68634;BME280;55625;47.072;22.192;2023-06-22T01:59:51;99868.47;;;20.33;100.00
68634;BME280;55625;47.072;22.192;2023-06-22T02:02:20;99880.00;;;20.33;100.00
68634;BME280;55625;47.072;22.192;2023-06-22T02:05:01;99880.50;;;20.31;99.13
68634;BME280;55625;47.072;22.192;2023-06-22T02:07:32;99883.91;;;20.30;99.05
68634;BME280;55625;47.072;22.192;2023-06-22T02:10:00;99882.84;;;20.27;98.88
68634;BME280;55625;47.072;22.192;2023-06-22T02:12:28;99879.72;;;20.25;98.95
68634;BME280;55625;47.072;22.192;2023-06-22T02:14:55;99871.81;;;20.20;99.22
68634;BME280;55625;47.072;22.192;2023-06-22T02:17:21;99876.78;;;20.20;99.22
68634;BME280;55625;47.072;22.192;2023-06-22T02:19:47;99870.47;;;20.15;99.45
68634;BME280;55625;47.072;22.192;2023-06-22T02:22:13;99869.41;;;20.13;100.00
68634;BME280;55625;47.072;22.192;2023-06-22T02:24:39;99867.28;;;20.08;100.00
68634;BME280;55625;47.072;22.192;2023-06-22T02:27:05;99875.91;;;20.02;100.00
68634;BME280;55625;47.072;22.192;2023-06-22T02:29:32;99871.94;;;19.94;100.00
68634;BME280;55625;47.072;22.192;2023-06-22T02:31:58;99872.41;;;19.87;100.00
68634;BME280;55625;47.072;22.192;2023-06-22T02:34:24;99876.06;;;19.82;100.00
68634;BME280;55625;47.072;22.192;2023-06-22T02:36:50;99874.97;;;19.74;100.00
68634;BME280;55625;47.072;22.192;2023-06-22T02:39:20;99874.66;;;19.66;100.00
68634;BME280;55625;47.072;22.192;2023-06-22T02:41:54;99879.06;;;19.62;100.00
68634;BME280;55625;47.072;22.192;2023-06-22T02:44:21;99879.28;;;19.58;100.00
68634;BME280;55625;47.072;22.192;2023-06-22T02:46:48;99877.16;;;19.53;100.00
68634;BME280;55625;47.072;22.192;2023-06-22T02:49:14;99875.56;;;19.52;100.00
68634;BME280;55625;47.072;22.192;2023-06-22T02:51:45;99878.94;;;19.50;100.00
68634;BME280;55625;47.072;22.192;2023-06-22T02:54:12;99891.47;;;19.47;100.00
68634;BME280;55625;47.072;22.192;2023-06-22T02:56:37;99886.75;;;19.44;100.00
68634;BME280;55625;47.072;22.192;2023-06-22T02:59:04;99894.31;;;19.42;100.00
68634;BME280;55625;47.072;22.192;2023-06-22T03:01:30;99899.00;;;19.39;100.00
68634;BME280;55625;47.072;22.192;2023-06-22T03:03:56;99905.00;;;19.36;100.00
68634;BME280;55625;47.072;22.192;2023-06-22T03:06:22;99899.50;;;19.32;100.00
68634;BME280;55625;47.072;22.192;2023-06-22T03:08:50;99909.16;;;19.29;100.00
68634;BME280;55625;47.072;22.192;2023-06-22T03:11:16;99918.50;;;19.24;100.00
68634;BME280;55625;47.072;22.192;2023-06-22T03:13:42;99906.41;;;19.20;100.00
68634;BME280;55625;47.072;22.192;2023-06-22T03:16:09;99904.06;;;19.18;100.00
68634;BME280;55625;47.072;22.192;2023-06-22T03:18:34;99908.22;;;19.17;100.00
68634;BME280;55625;47.072;22.192;2023-06-22T03:21:00;99905.88;;;19.16;100.00
68634;BME280;55625;47.072;22.192;2023-06-22T03:23:27;99910.56;;;19.13;100.00
68634;BME280;55625;47.072;22.192;2023-06-22T03:25:53;99924.72;;;19.17;100.00
68634;BME280;55625;47.072;22.192;2023-06-22T03:28:21;99934.19;;;19.23;100.00
68634;BME280;55625;47.072;22.192;2023-06-22T03:30:47;99933.75;;;19.30;100.00
68634;BME280;55625;47.072;22.192;2023-06-22T03:33:13;99926.47;;;19.35;100.00
68634;BME280;55625;47.072;22.192;2023-06-22T03:35:39;99927.53;;;19.37;100.00
68634;BME280;55625;47.072;22.192;2023-06-22T03:38:05;99940.63;;;19.38;100.00
68634;BME280;55625;47.072;22.192;2023-06-22T03:40:30;99943.78;;;19.40;100.00
68634;BME280;55625;47.072;22.192;2023-06-22T03:42:56;99926.50;;;19.40;100.00
68634;BME280;55625;47.072;22.192;2023-06-22T03:45:22;99920.47;;;19.38;100.00
68634;BME280;55625;47.072;22.192;2023-06-22T03:47:48;99941.91;;;19.37;100.00
68634;BME280;55625;47.072;22.192;2023-06-22T03:50:14;99952.41;;;19.40;100.00
68634;BME280;55625;47.072;22.192;2023-06-22T03:52:40;99981.47;;;19.42;100.00
68634;BME280;55625;47.072;22.192;2023-06-22T03:55:07;99978.59;;;19.42;100.00
68634;BME280;55625;47.072;22.192;2023-06-22T03:57:33;99977.28;;;19.43;100.00
68634;BME280;55625;47.072;22.192;2023-06-22T03:59:59;99971.81;;;19.45;100.00
68634;BME280;55625;47.072;22.192;2023-06-22T04:02:25;99972.38;;;19.49;100.00
68634;BME280;55625;47.072;22.192;2023-06-22T04:04:51;99983.16;;;19.54;100.00
68634;BME280;55625;47.072;22.192;2023-06-22T04:07:17;99977.41;;;19.54;100.00
68634;BME280;55625;47.072;22.192;2023-06-22T04:09:43;99981.63;;;19.59;100.00
68634;BME280;55625;47.072;22.192;2023-06-22T04:12:09;99985.09;;;19.63;100.00
68634;BME280;55625;47.072;22.192;2023-06-22T04:14:35;99983.56;;;19.68;100.00
68634;BME280;55625;47.072;22.192;2023-06-22T04:17:01;99985.69;;;19.73;100.00
68634;BME280;55625;47.072;22.192;2023-06-22T04:19:28;99978.41;;;19.77;100.00
68634;BME280;55625;47.072;22.192;2023-06-22T04:21:54;99975.28;;;19.81;100.00
68634;BME280;55625;47.072;22.192;2023-06-22T04:24:20;99984.75;;;19.87;100.00
68634;BME280;55625;47.072;22.192;2023-06-22T04:26:46;99992.69;;;19.92;100.00
68634;BME280;55625;47.072;22.192;2023-06-22T04:29:13;99992.19;;;19.99;100.00
68634;BME280;55625;47.072;22.192;2023-06-22T04:31:39;99993.84;;;20.11;100.00
68634;BME280;55625;47.072;22.192;2023-06-22T04:34:06;99994.44;;;20.21;100.00
68634;BME280;55625;47.072;22.192;2023-06-22T04:36:38;99989.78;;;20.29;100.00
68634;BME280;55625;47.072;22.192;2023-06-22T04:39:11;99988.75;;;20.32;100.00
68634;BME280;55625;47.072;22.192;2023-06-22T04:41:39;100003.50;;;20.40;100.00
68634;BME280;55625;47.072;22.192;2023-06-22T04:44:12;100011.66;;;20.47;100.00
68634;BME280;55625;47.072;22.192;2023-06-22T04:46:39;100010.44;;;20.59;100.00
68634;BME280;55625;47.072;22.192;2023-06-22T04:49:09;100005.25;;;20.74;100.00
68634;BME280;55625;47.072;22.192;2023-06-22T04:51:40;100016.59;;;20.84;100.00
68634;BME280;55625;47.072;22.192;2023-06-22T04:54:07;100013.97;;;20.91;100.00
68634;BME280;55625;47.072;22.192;2023-06-22T04:56:33;100006.41;;;20.99;99.81
68634;BME280;55625;47.072;22.192;2023-06-22T04:58:59;100008.56;;;21.16;99.64
68634;BME280;55625;47.072;22.192;2023-06-22T05:01:25;100005.97;;;21.23;98.63
68634;BME280;55625;47.072;22.192;2023-06-22T05:03:51;100031.44;;;21.30;97.34
68634;BME280;55625;47.072;22.192;2023-06-22T05:06:24;100021.22;;;21.35;97.58
68634;BME280;55625;47.072;22.192;2023-06-22T05:08:54;100027.78;;;21.41;96.99
68634;BME280;55625;47.072;22.192;2023-06-22T05:11:27;100027.56;;;21.45;96.59
68634;BME280;55625;47.072;22.192;2023-06-22T05:13:53;100038.34;;;21.50;97.35
68634;BME280;55625;47.072;22.192;2023-06-22T05:16:20;100028.88;;;21.55;96.54
68634;BME280;55625;47.072;22.192;2023-06-22T05:18:51;100028.63;;;21.58;97.56
68634;BME280;55625;47.072;22.192;2023-06-22T05:21:18;100029.69;;;21.61;98.02
68634;BME280;55625;47.072;22.192;2023-06-22T05:23:44;100033.88;;;21.60;97.76
68634;BME280;55625;47.072;22.192;2023-06-22T05:26:10;100038.34;;;21.61;99.07
68634;BME280;55625;47.072;22.192;2023-06-22T05:28:36;100026.00;;;21.60;99.44
68634;BME280;55625;47.072;22.192;2023-06-22T05:31:02;100032.31;;;21.64;100.00
68634;BME280;55625;47.072;22.192;2023-06-22T05:33:28;100031.25;;;21.67;99.32
68634;BME280;55625;47.072;22.192;2023-06-22T05:35:53;100034.41;;;21.64;98.42
68634;BME280;55625;47.072;22.192;2023-06-22T05:38:19;100032.03;;;21.62;98.51
68634;BME280;55625;47.072;22.192;2023-06-22T05:40:45;100029.16;;;21.62;98.57
68634;BME280;55625;47.072;22.192;2023-06-22T05:43:11;100025.22;;;21.60;98.08
68634;BME280;55625;47.072;22.192;2023-06-22T05:45:37;100029.16;;;21.62;98.40
68634;BME280;55625;47.072;22.192;2023-06-22T05:48:03;100023.38;;;21.68;98.16
68634;BME280;55625;47.072;22.192;2023-06-22T05:50:29;100039.91;;;21.73;98.22
68634;BME280;55625;47.072;22.192;2023-06-22T05:52:54;100049.66;;;21.76;96.93
68634;BME280;55625;47.072;22.192;2023-06-22T05:55:20;100050.97;;;21.80;96.69
68634;BME280;55625;47.072;22.192;2023-06-22T05:57:46;100059.91;;;21.82;97.19
68634;BME280;55625;47.072;22.192;2023-06-22T06:00:12;100056.50;;;21.84;98.06
68634;BME280;55625;47.072;22.192;2023-06-22T06:02:39;100059.91;;;21.82;96.84
68634;BME280;55625;47.072;22.192;2023-06-22T06:05:12;100070.69;;;21.82;97.47
68634;BME280;55625;47.072;22.192;2023-06-22T06:07:43;100070.69;;;21.87;98.07
68634;BME280;55625;47.072;22.192;2023-06-22T06:10:09;100068.84;;;21.95;95.80
68634;BME280;55625;47.072;22.192;2023-06-22T06:12:35;100064.97;;;22.04;95.58
68634;BME280;55625;47.072;22.192;2023-06-22T06:15:02;100063.38;;;22.14;94.87
68634;BME280;55625;47.072;22.192;2023-06-22T06:17:28;100062.56;;;22.25;93.53
68634;BME280;55625;47.072;22.192;2023-06-22T06:19:54;100050.47;;;22.32;91.68
68634;BME280;55625;47.072;22.192;2023-06-22T06:22:19;100054.41;;;22.40;94.05
68634;BME280;55625;47.072;22.192;2023-06-22T06:24:47;100042.84;;;22.40;92.56
68634;BME280;55625;47.072;22.192;2023-06-22T06:27:13;100038.09;;;22.43;93.41
68634;BME280;55625;47.072;22.192;2023-06-22T06:29:39;100034.41;;;22.48;93.76
68634;BME280;55625;47.072;22.192;2023-06-22T06:32:05;100038.13;;;22.37;94.53
68634;BME280;55625;47.072;22.192;2023-06-22T06:34:32;100036.00;;;22.26;96.18
68634;BME280;55625;47.072;22.192;2023-06-22T06:36:57;100040.22;;;22.20;95.95
68634;BME280;55625;47.072;22.192;2023-06-22T06:39:23;100046.28;;;22.11;94.38
68634;BME280;55625;47.072;22.192;2023-06-22T06:41:50;100042.34;;;22.08;94.50
68634;BME280;55625;47.072;22.192;2023-06-22T06:44:16;100057.06;;;22.05;95.75
68634;BME280;55625;47.072;22.192;2023-06-22T06:46:42;100043.66;;;22.13;97.00
68634;BME280;55625;47.072;22.192;2023-06-22T06:49:08;100045.75;;;22.18;96.38
68634;BME280;55625;47.072;22.192;2023-06-22T06:51:34;100042.06;;;22.23;96.30
68634;BME280;55625;47.072;22.192;2023-06-22T06:53:59;100041.53;;;22.30;95.15
68634;BME280;55625;47.072;22.192;2023-06-22T06:56:25;100046.25;;;22.33;94.20
68634;BME280;55625;47.072;22.192;2023-06-22T06:58:51;100054.69;;;22.42;92.49
68634;BME280;55625;47.072;22.192;2023-06-22T07:01:17;100059.09;;;22.60;92.20
68634;BME280;55625;47.072;22.192;2023-06-22T07:03:43;100059.09;;;22.71;89.96
68634;BME280;55625;47.072;22.192;2023-06-22T07:06:09;100062.75;;;22.83;88.15
68634;BME280;55625;47.072;22.192;2023-06-22T07:08:35;100066.66;;;22.91;86.76
68634;BME280;55625;47.072;22.192;2023-06-22T07:11:02;100071.94;;;22.98;86.96
68634;BME280;55625;47.072;22.192;2023-06-22T07:13:28;100058.78;;;22.97;86.02
68634;BME280;55625;47.072;22.192;2023-06-22T07:15:54;100070.06;;;23.01;86.16
68634;BME280;55625;47.072;22.192;2023-06-22T07:18:20;100066.38;;;23.06;87.67
68634;BME280;55625;47.072;22.192;2023-06-22T07:20:46;100070.00;;;23.17;87.44
68634;BME280;55625;47.072;22.192;2023-06-22T07:23:11;100065.75;;;23.30;87.84
68634;BME280;55625;47.072;22.192;2023-06-22T07:25:37;100054.66;;;23.34;87.74
68634;BME280;55625;47.072;22.192;2023-06-22T07:28:06;100060.41;;;23.39;87.06
68634;BME280;55625;47.072;22.192;2023-06-22T07:30:33;100057.22;;;23.43;87.00
68634;BME280;55625;47.072;22.192;2023-06-22T07:33:00;100069.34;;;23.41;88.17
68634;BME280;55625;47.072;22.192;2023-06-22T07:35:32;100068.53;;;23.46;86.90
68634;BME280;55625;47.072;22.192;2023-06-22T07:37:59;100076.16;;;23.49;87.28
68634;BME280;55625;47.072;22.192;2023-06-22T07:40:26;100072.19;;;23.58;88.05
68634;BME280;55625;47.072;22.192;2023-06-22T07:42:51;100078.41;;;23.73;87.42
68634;BME280;55625;47.072;22.192;2023-06-22T07:45:18;100070.16;;;23.83;85.50
68634;BME280;55625;47.072;22.192;2023-06-22T07:47:44;100067.16;;;24.00;85.07
68634;BME280;55625;47.072;22.192;2023-06-22T07:50:10;100070.69;;;24.17;84.74
68634;BME280;55625;47.072;22.192;2023-06-22T07:52:36;100073.91;;;24.43;84.53
68634;BME280;55625;47.072;22.192;2023-06-22T07:55:02;100071.41;;;24.59;82.61
68634;BME280;55625;47.072;22.192;2023-06-22T07:57:28;100067.66;;;24.64;80.40
68634;BME280;55625;47.072;22.192;2023-06-22T08:00:05;100067.22;;;24.78;80.92
68634;BME280;55625;47.072;22.192;2023-06-22T08:02:44;100068.13;;;24.92;79.58
68634;BME280;55625;47.072;22.192;2023-06-22T08:05:10;100082.91;;;25.19;79.90
68634;BME280;55625;47.072;22.192;2023-06-22T08:07:37;100078.66;;;25.38;77.15
68634;BME280;55625;47.072;22.192;2023-06-22T08:10:05;100078.09;;;25.40;75.01
68634;BME280;55625;47.072;22.192;2023-06-22T08:12:31;100081.66;;;25.52;76.33
68634;BME280;55625;47.072;22.192;2023-06-22T08:14:57;100080.88;;;25.70;74.24
68634;BME280;55625;47.072;22.192;2023-06-22T08:17:26;100089.75;;;25.96;73.79
68634;BME280;55625;47.072;22.192;2023-06-22T08:19:52;100079.66;;;26.16;71.39
68634;BME280;55625;47.072;22.192;2023-06-22T08:22:18;100085.34;;;26.41;70.81
68634;BME280;55625;47.072;22.192;2023-06-22T08:24:44;100085.75;;;26.64;69.83
68634;BME280;55625;47.072;22.192;2023-06-22T08:27:10;100091.72;;;26.98;70.23
68634;BME280;55625;47.072;22.192;2023-06-22T08:29:41;100079.59;;;27.20;68.88
68634;BME280;55625;47.072;22.192;2023-06-22T08:32:13;100095.78;;;27.08;66.60
68634;BME280;55625;47.072;22.192;2023-06-22T08:34:39;100097.13;;;27.07;65.26
68634;BME280;55625;47.072;22.192;2023-06-22T08:37:08;100094.09;;;26.99;65.47
68634;BME280;55625;47.072;22.192;2023-06-22T08:39:35;100096.34;;;27.06;66.19
68634;BME280;55625;47.072;22.192;2023-06-22T08:42:00;100096.00;;;27.10;67.62
68634;BME280;55625;47.072;22.192;2023-06-22T08:44:26;100094.75;;;27.05;66.17
68634;BME280;55625;47.072;22.192;2023-06-22T08:46:52;100091.97;;;27.00;64.81
68634;BME280;55625;47.072;22.192;2023-06-22T08:49:18;100084.78;;;27.01;65.50
68634;BME280;55625;47.072;22.192;2023-06-22T08:51:44;100084.00;;;27.00;66.58
68634;BME280;55625;47.072;22.192;2023-06-22T08:54:11;100093.75;;;27.29;66.20
68634;BME280;55625;47.072;22.192;2023-06-22T08:56:37;100085.19;;;27.44;66.62
68634;BME280;55625;47.072;22.192;2023-06-22T08:59:03;100077.91;;;27.38;63.75
68634;BME280;55625;47.072;22.192;2023-06-22T09:01:28;100086.66;;;26.98;64.65
68634;BME280;55625;47.072;22.192;2023-06-22T09:03:54;100092.38;;;26.90;67.62
68634;BME280;55625;47.072;22.192;2023-06-22T09:06:21;100084.41;;;26.78;65.42
68634;BME280;55625;47.072;22.192;2023-06-22T09:08:47;100082.91;;;26.58;67.69
68634;BME280;55625;47.072;22.192;2023-06-22T09:11:13;100089.06;;;26.54;69.04
68634;BME280;55625;47.072;22.192;2023-06-22T09:13:39;100086.16;;;26.54;67.50
68634;BME280;55625;47.072;22.192;2023-06-22T09:16:05;100083.25;;;26.54;68.77
68634;BME280;55625;47.072;22.192;2023-06-22T09:18:33;100079.09;;;26.37;69.17
68634;BME280;55625;47.072;22.192;2023-06-22T09:20:59;100082.59;;;26.29;69.33
68634;BME280;55625;47.072;22.192;2023-06-22T09:23:25;100082.38;;;26.27;68.83
68634;BME280;55625;47.072;22.192;2023-06-22T09:25:51;100081.13;;;26.55;69.65
68634;BME280;55625;47.072;22.192;2023-06-22T09:28:17;100076.94;;;27.09;69.43
68634;BME280;55625;47.072;22.192;2023-06-22T09:30:46;100081.59;;;27.51;70.50
68634;BME280;55625;47.072;22.192;2023-06-22T09:33:11;100083.66;;;27.91;66.51
68634;BME280;55625;47.072;22.192;2023-06-22T09:35:37;100086.66;;;28.19;65.02
68634;BME280;55625;47.072;22.192;2023-06-22T09:38:03;100084.09;;;28.15;67.13
68634;BME280;55625;47.072;22.192;2023-06-22T09:40:29;100073.53;;;28.26;67.03
68634;BME280;55625;47.072;22.192;2023-06-22T09:42:55;100071.28;;;28.19;66.50
68634;BME280;55625;47.072;22.192;2023-06-22T09:45:20;100069.31;;;28.34;64.68
68634;BME280;55625;47.072;22.192;2023-06-22T09:47:46;100069.47;;;28.29;66.25
68634;BME280;55625;47.072;22.192;2023-06-22T09:50:12;100074.66;;;28.43;64.81
68634;BME280;55625;47.072;22.192;2023-06-22T09:52:38;100074.31;;;28.75;65.19
68634;BME280;55625;47.072;22.192;2023-06-22T09:55:04;100072.66;;;28.59;64.57
68634;BME280;55625;47.072;22.192;2023-06-22T09:57:30;100076.06;;;28.99;65.84
68634;BME280;55625;47.072;22.192;2023-06-22T09:59:56;100070.41;;;29.30;63.59
68634;BME280;55625;47.072;22.192;2023-06-22T10:02:22;100065.44;;;29.46;63.99
68634;BME280;55625;47.072;22.192;2023-06-22T10:04:48;100059.88;;;29.71;64.28
68634;BME280;55625;47.072;22.192;2023-06-22T10:07:14;100066.34;;;29.84;64.06
68634;BME280;55625;47.072;22.192;2023-06-22T10:09:40;100065.56;;;29.84;62.48
68634;BME280;55625;47.072;22.192;2023-06-22T10:12:07;100060.50;;;29.84;61.09
68634;BME280;55625;47.072;22.192;2023-06-22T10:14:33;100057.19;;;29.80;61.31
68634;BME280;55625;47.072;22.192;2023-06-22T10:16:58;100057.31;;;29.59;60.45
68634;BME280;55625;47.072;22.192;2023-06-22T10:19:25;100054.59;;;29.69;63.45
68634;BME280;55625;47.072;22.192;2023-06-22T10:21:51;100061.47;;;29.87;60.84
68634;BME280;55625;47.072;22.192;2023-06-22T10:24:17;100056.19;;;29.70;60.31
68634;BME280;55625;47.072;22.192;2023-06-22T10:26:43;100048.59;;;29.75;62.42
68634;BME280;55625;47.072;22.192;2023-06-22T10:29:09;100050.94;;;29.76;62.30
68634;BME280;55625;47.072;22.192;2023-06-22T10:31:35;100044.88;;;29.74;60.16
68634;BME280;55625;47.072;22.192;2023-06-22T10:34:00;100048.34;;;29.65;58.76
68634;BME280;55625;47.072;22.192;2023-06-22T10:36:26;100053.63;;;29.30;59.79
68634;BME280;55625;47.072;22.192;2023-06-22T10:38:52;100042.66;;;29.52;63.22
68634;BME280;55625;47.072;22.192;2023-06-22T10:41:19;100047.94;;;29.61;61.52
68634;BME280;55625;47.072;22.192;2023-06-22T10:43:44;100035.53;;;29.98;59.60
68634;BME280;55625;47.072;22.192;2023-06-22T10:46:10;100043.22;;;30.24;57.93
68634;BME280;55625;47.072;22.192;2023-06-22T10:48:36;100048.50;;;30.56;57.34
68634;BME280;55625;47.072;22.192;2023-06-22T10:51:02;100042.69;;;30.64;55.38
68634;BME280;55625;47.072;22.192;2023-06-22T10:53:27;100034.06;;;30.43;56.01
68634;BME280;55625;47.072;22.192;2023-06-22T10:55:53;100045.16;;;30.29;59.74
68634;BME280;55625;47.072;22.192;2023-06-22T10:58:20;100040.69;;;30.59;58.00
68634;BME280;55625;47.072;22.192;2023-06-22T11:00:46;100036.38;;;30.83;55.66
68634;BME280;55625;47.072;22.192;2023-06-22T11:03:11;100039.13;;;30.81;56.19
68634;BME280;55625;47.072;22.192;2023-06-22T11:05:40;100041.25;;;30.88;55.35
68634;BME280;55625;47.072;22.192;2023-06-22T11:08:05;100042.63;;;30.95;55.58
68634;BME280;55625;47.072;22.192;2023-06-22T11:10:31;100041.47;;;30.75;54.81
68634;BME280;55625;47.072;22.192;2023-06-22T11:12:57;100040.69;;;30.51;55.55
68634;BME280;55625;47.072;22.192;2023-06-22T11:15:24;100036.00;;;30.56;57.31
68634;BME280;55625;47.072;22.192;2023-06-22T11:17:50;100031.69;;;30.80;54.87
68634;BME280;55625;47.072;22.192;2023-06-22T11:20:16;100033.88;;;30.64;54.15
68634;BME280;55625;47.072;22.192;2023-06-22T11:22:42;100033.69;;;30.70;53.54
68634;BME280;55625;47.072;22.192;2023-06-22T11:25:08;100031.53;;;30.63;57.27
68634;BME280;55625;47.072;22.192;2023-06-22T11:27:35;100022.91;;;30.80;57.71
68634;BME280;55625;47.072;22.192;2023-06-22T11:30:01;100029.06;;;31.14;51.69
68634;BME280;55625;47.072;22.192;2023-06-22T11:32:26;100025.00;;;31.02;51.69
68634;BME280;55625;47.072;22.192;2023-06-22T11:34:52;100026.38;;;31.01;51.80
68634;BME280;55625;47.072;22.192;2023-06-22T11:37:18;100028.56;;;30.85;52.66
68634;BME280;55625;47.072;22.192;2023-06-22T11:39:44;100023.50;;;30.55;52.82
68634;BME280;55625;47.072;22.192;2023-06-22T11:42:10;100022.72;;;30.78;56.16
68634;BME280;55625;47.072;22.192;2023-06-22T11:44:36;100025.22;;;30.89;52.15
68634;BME280;55625;47.072;22.192;2023-06-22T11:47:02;100025.97;;;31.05;52.99
68634;BME280;55625;47.072;22.192;2023-06-22T11:49:33;100023.41;;;31.16;52.42
68634;BME280;55625;47.072;22.192;2023-06-22T11:51:58;100026.94;;;31.07;53.75
68634;BME280;55625;47.072;22.192;2023-06-22T11:54:24;100012.13;;;30.90;54.76
68634;BME280;55625;47.072;22.192;2023-06-22T11:56:50;100015.66;;;30.96;52.50
68634;BME280;55625;47.072;22.192;2023-06-22T11:59:16;100013.91;;;30.93;52.56
68634;BME280;55625;47.072;22.192;2023-06-22T12:01:41;100017.81;;;30.96;55.52
68634;BME280;55625;47.072;22.192;2023-06-22T12:04:07;100015.97;;;31.15;54.86
68634;BME280;55625;47.072;22.192;2023-06-22T12:06:38;100015.59;;;31.11;54.43
68634;BME280;55625;47.072;22.192;2023-06-22T12:09:07;100016.78;;;31.16;54.91
68634;BME280;55625;47.072;22.192;2023-06-22T12:11:33;100018.56;;;31.04;53.99
68634;BME280;55625;47.072;22.192;2023-06-22T12:13:59;100007.38;;;31.10;54.78
68634;BME280;55625;47.072;22.192;2023-06-22T12:16:28;100009.56;;;31.02;50.91
68634;BME280;55625;47.072;22.192;2023-06-22T12:18:54;100002.56;;;30.89;53.90
68634;BME280;55625;47.072;22.192;2023-06-22T12:21:20;99996.09;;;30.99;53.42
68634;BME280;55625;47.072;22.192;2023-06-22T12:23:46;99997.06;;;31.01;54.59
68634;BME280;55625;47.072;22.192;2023-06-22T12:26:12;100002.75;;;30.99;51.94
68634;BME280;55625;47.072;22.192;2023-06-22T12:28:37;100000.81;;;30.86;52.71
68634;BME280;55625;47.072;22.192;2023-06-22T12:31:03;99997.22;;;31.18;53.18
68634;BME280;55625;47.072;22.192;2023-06-22T12:33:29;100000.19;;;31.03;53.06
68634;BME280;55625;47.072;22.192;2023-06-22T12:35:56;99987.72;;;30.87;51.92
68634;BME280;55625;47.072;22.192;2023-06-22T12:38:22;99998.13;;;30.66;51.80
68634;BME280;55625;47.072;22.192;2023-06-22T12:40:50;100000.25;;;30.57;53.74
68634;BME280;55625;47.072;22.192;2023-06-22T12:43:16;99980.88;;;30.85;51.66